Boone County Airport Harrison US
ICAO: KHRO
IATA: HRO
Category: Medium
Scheduled Services: Yes

Elevation: 1365 ft
TransAlt. 18000 ft.

Airport Communications:
ASOS:121.125
MEMPHIS CNTR:126.85
JONESBORO RDO:122.45
CTAF/UNICOM:123

KHRO Zoom In..

Runways:

(A) RW 18 length 6161 ft width 150 ft
---- / hdg 182

(B) RW 36 length 6161 ft width 150 ft
ILS 111.70 / hdg 2

Location; KHRO
Day. 19 / Time. 03.53 Zulu
* Altimeter: 29.98
* Temperature: 24° c. 75.2°f.
* Wind from: 150° Speed 04 kn.
Dewpoint: 22° c.
Visibility: 10 Statute Miles.
Clouds: Scattered 2100 ft.

KHRO 190353Z AUTO 15004KT 10SM SCT021 24/22 A2998 RMK AO2 SLP136 T02390222


Wind From 150°
Speed 04 kn.

 
 
jpsmedia.com for Web Design worldairports.se 2018   terms of use